createdAt,value
2023-04-30T00:00:16.053Z,15.30
2023-04-30T00:02:43.964Z,16.05
2023-04-30T00:05:11.513Z,17.05
2023-04-30T00:07:42.342Z,15.90
2023-04-30T00:10:13.150Z,14.98
2023-04-30T00:12:40.861Z,17.70
2023-04-30T00:15:08.456Z,16.15
2023-04-30T00:17:36.024Z,15.25
2023-04-30T00:20:03.456Z,19.67
2023-04-30T00:22:31.036Z,18.05
2023-04-30T00:24:58.516Z,15.77
2023-04-30T00:27:26.186Z,17.75
2023-04-30T00:29:55.060Z,15.77
2023-04-30T00:32:22.793Z,18.48
2023-04-30T00:34:50.399Z,16.80
2023-04-30T00:37:17.796Z,17.75
2023-04-30T00:39:45.376Z,16.15
2023-04-30T00:42:12.783Z,17.73
2023-04-30T00:44:40.390Z,18.17
2023-04-30T00:47:07.760Z,18.30
2023-04-30T00:49:35.269Z,20.17
2023-04-30T00:52:02.788Z,18.98
2023-04-30T00:54:30.323Z,17.25
2023-04-30T00:56:59.007Z,17.48
2023-04-30T00:59:26.761Z,21.05
2023-04-30T01:01:54.663Z,16.48
2023-04-30T01:04:22.216Z,19.67
2023-04-30T01:06:49.654Z,16.45
2023-04-30T01:09:17.129Z,17.80
2023-04-30T01:11:57.821Z,16.65
2023-04-30T01:14:28.501Z,16.95
2023-04-30T01:17:01.346Z,15.57
2023-04-30T01:19:36.861Z,18.95
2023-04-30T01:22:05.130Z,23.45
2023-04-30T01:24:36.018Z,19.90
2023-04-30T01:27:22.416Z,20.83
2023-04-30T01:29:50.539Z,26.35
2023-04-30T01:32:18.035Z,20.70
2023-04-30T01:34:45.621Z,21.65
2023-04-30T01:37:21.465Z,20.73
2023-04-30T01:40:12.151Z,19.38
2023-04-30T01:42:46.327Z,23.42
2023-04-30T01:45:13.962Z,19.57
2023-04-30T01:47:47.147Z,26.83
2023-04-30T01:50:40.827Z,24.27
2023-04-30T01:53:10.432Z,20.58
2023-04-30T01:55:44.898Z,21.27
2023-04-30T01:58:13.938Z,24.58
2023-04-30T02:00:41.432Z,21.92
2023-04-30T02:03:09.287Z,24.67
2023-04-30T02:05:36.942Z,22.85
2023-04-30T02:08:04.430Z,21.67
2023-04-30T02:10:31.895Z,22.83
2023-04-30T02:12:59.537Z,23.63
2023-04-30T02:15:27.724Z,21.35
2023-04-30T02:17:55.290Z,23.35
2023-04-30T02:20:22.972Z,20.60
2023-04-30T02:22:50.375Z,22.25
2023-04-30T02:25:17.916Z,24.38
2023-04-30T02:27:45.478Z,22.80
2023-04-30T02:30:12.986Z,19.80
2023-04-30T02:32:40.701Z,17.17
2023-04-30T02:35:08.507Z,16.60
2023-04-30T02:37:35.990Z,17.20
2023-04-30T02:40:03.504Z,19.05
2023-04-30T02:42:31.077Z,17.35
2023-04-30T02:44:58.533Z,21.08
2023-04-30T02:47:26.257Z,18.35
2023-04-30T02:49:53.944Z,23.02
2023-04-30T02:52:21.519Z,18.70
2023-04-30T02:54:48.990Z,22.50
2023-04-30T02:57:16.621Z,20.55
2023-04-30T02:59:46.285Z,17.67
2023-04-30T03:02:14.552Z,24.42
2023-04-30T03:04:42.079Z,20.73
2023-04-30T03:07:09.682Z,19.10
2023-04-30T03:09:37.492Z,19.80
2023-04-30T03:12:05.218Z,22.00
2023-04-30T03:14:32.598Z,23.63
2023-04-30T03:17:00.098Z,20.73
2023-04-30T03:19:28.869Z,19.60
2023-04-30T03:21:56.700Z,25.55
2023-04-30T03:24:25.155Z,20.90
2023-04-30T03:26:52.574Z,23.13
2023-04-30T03:29:20.024Z,20.20
2023-04-30T03:31:47.479Z,22.35
2023-04-30T03:34:15.030Z,19.88
2023-04-30T03:36:42.446Z,23.50
2023-04-30T03:39:10.041Z,22.23
2023-04-30T03:41:37.480Z,20.15
2023-04-30T03:44:05.300Z,25.13
2023-04-30T03:46:32.726Z,25.10
2023-04-30T03:49:00.168Z,18.52
2023-04-30T03:51:28.524Z,22.10
2023-04-30T03:53:56.144Z,23.73
2023-04-30T03:56:23.721Z,18.67
2023-04-30T03:58:51.185Z,19.02
2023-04-30T04:01:19.160Z,22.60
2023-04-30T04:03:46.701Z,20.30
2023-04-30T04:06:14.660Z,25.95
2023-04-30T04:08:43.434Z,27.52
2023-04-30T04:11:11.585Z,21.45
2023-04-30T04:13:39.526Z,22.10
2023-04-30T04:16:08.726Z,24.55
2023-04-30T04:18:36.615Z,22.58
2023-04-30T04:21:04.338Z,20.25
2023-04-30T04:23:32.237Z,25.40
2023-04-30T04:26:00.404Z,17.60
2023-04-30T04:28:28.653Z,17.38
2023-04-30T04:30:56.398Z,21.40
2023-04-30T04:33:23.830Z,21.67
2023-04-30T04:35:51.353Z,20.90
2023-04-30T04:38:20.176Z,17.63
2023-04-30T04:40:54.312Z,19.92
2023-04-30T04:43:22.941Z,21.92
2023-04-30T04:45:50.619Z,21.45
2023-04-30T04:48:18.383Z,18.65
2023-04-30T04:50:46.205Z,17.23
2023-04-30T04:53:14.144Z,17.48
2023-04-30T04:55:41.750Z,17.85
2023-04-30T04:58:09.184Z,17.33
2023-04-30T05:00:36.718Z,18.80
2023-04-30T05:03:04.304Z,21.05
2023-04-30T05:05:32.209Z,19.65
2023-04-30T05:07:59.586Z,19.27
2023-04-30T05:10:27.078Z,17.90
2023-04-30T05:12:54.493Z,15.88
2023-04-30T05:15:22.046Z,15.77
2023-04-30T05:17:49.576Z,17.33
2023-04-30T05:20:17.055Z,21.75
2023-04-30T05:22:44.481Z,18.92
2023-04-30T05:25:11.933Z,23.25
2023-04-30T05:27:39.436Z,18.70
2023-04-30T05:30:07.189Z,22.17
2023-04-30T05:32:35.061Z,23.08
2023-04-30T05:35:02.611Z,23.02
2023-04-30T05:37:30.279Z,22.05
2023-04-30T05:39:57.735Z,21.38
2023-04-30T05:42:25.238Z,23.35
2023-04-30T05:44:52.736Z,23.92
2023-04-30T05:47:20.241Z,27.42
2023-04-30T05:49:47.623Z,22.63
2023-04-30T05:52:17.318Z,20.08
2023-04-30T05:54:44.868Z,22.13
2023-04-30T05:57:12.342Z,24.13
2023-04-30T05:59:39.802Z,27.63
2023-04-30T06:02:07.814Z,22.35
2023-04-30T06:04:35.366Z,21.35
2023-04-30T06:07:02.793Z,28.98
2023-04-30T06:09:30.278Z,24.38
2023-04-30T06:11:57.925Z,20.85
2023-04-30T06:14:25.563Z,18.35
2023-04-30T06:16:53.913Z,19.17
2023-04-30T06:19:21.442Z,22.25
2023-04-30T06:21:48.955Z,24.55
2023-04-30T06:24:16.456Z,21.58
2023-04-30T06:26:43.964Z,24.08
2023-04-30T06:29:11.415Z,24.40
2023-04-30T06:31:39.054Z,26.45
2023-04-30T06:34:06.690Z,20.80
2023-04-30T06:36:34.127Z,30.13
2023-04-30T06:39:01.773Z,28.02
2023-04-30T06:41:29.248Z,29.25
2023-04-30T06:43:56.724Z,27.10
2023-04-30T06:46:24.179Z,23.33
2023-04-30T06:48:51.594Z,23.65
2023-04-30T06:51:19.086Z,24.05
2023-04-30T06:53:46.583Z,28.30
2023-04-30T06:56:13.967Z,34.67
2023-04-30T06:58:41.480Z,21.73
2023-04-30T07:01:08.905Z,25.27
2023-04-30T07:03:39.296Z,24.17
2023-04-30T07:06:06.924Z,28.63
2023-04-30T07:08:34.340Z,30.00
2023-04-30T07:11:01.798Z,33.25
2023-04-30T07:13:29.217Z,37.42
2023-04-30T07:15:56.793Z,25.63
2023-04-30T07:18:24.239Z,23.60
2023-04-30T07:20:51.733Z,26.13
2023-04-30T07:23:19.300Z,26.75
2023-04-30T07:25:46.804Z,22.73
2023-04-30T07:28:14.274Z,30.65
2023-04-30T07:30:41.756Z,30.58
2023-04-30T07:33:09.787Z,29.02
2023-04-30T07:35:37.406Z,30.73
2023-04-30T07:38:05.875Z,32.53
2023-04-30T07:40:36.266Z,26.55
2023-04-30T07:43:05.185Z,30.08
2023-04-30T07:45:34.034Z,24.42
2023-04-30T07:48:02.041Z,22.15
2023-04-30T07:50:33.926Z,26.58
2023-04-30T07:53:02.746Z,16.00
2023-04-30T07:55:30.495Z,19.83
2023-04-30T07:57:58.821Z,19.33
2023-04-30T08:00:26.556Z,15.35
2023-04-30T08:02:54.216Z,16.33
2023-04-30T08:05:21.795Z,25.05
2023-04-30T08:07:49.206Z,19.10
2023-04-30T08:10:16.753Z,17.98
2023-04-30T08:12:44.271Z,14.50
2023-04-30T08:15:12.066Z,16.52
2023-04-30T08:17:39.730Z,16.95
2023-04-30T08:20:08.153Z,22.33
2023-04-30T08:22:36.493Z,18.73
2023-04-30T08:25:04.181Z,17.25
2023-04-30T08:27:32.507Z,14.93
2023-04-30T08:30:00.119Z,18.55
2023-04-30T08:32:28.365Z,11.20
2023-04-30T08:34:56.169Z,15.50
2023-04-30T08:37:23.811Z,14.27
2023-04-30T08:39:51.286Z,9.65
2023-04-30T08:42:20.155Z,37.83
2023-04-30T08:44:48.289Z,17.58
2023-04-30T08:47:18.137Z,11.82
2023-04-30T08:49:46.310Z,12.63
2023-04-30T08:52:13.952Z,23.45
2023-04-30T08:54:41.352Z,18.15
2023-04-30T08:57:08.765Z,42.50
2023-04-30T08:59:36.386Z,12.90
2023-04-30T09:02:06.073Z,11.82
2023-04-30T09:04:34.313Z,83.03
2023-04-30T09:07:05.194Z,41.75
2023-04-30T09:09:38.892Z,14.05
2023-04-30T09:12:19.144Z,15.85
2023-04-30T09:15:14.073Z,9.60
2023-04-30T09:17:41.667Z,7.43
2023-04-30T09:20:12.729Z,9.35
2023-04-30T09:22:41.243Z,10.45
2023-04-30T09:25:09.467Z,12.27
2023-04-30T09:27:36.950Z,8.20
2023-04-30T09:30:04.822Z,8.70
2023-04-30T09:32:32.435Z,9.18
2023-04-30T09:35:00.001Z,18.27
2023-04-30T09:37:39.804Z,8.32
2023-04-30T09:40:08.011Z,8.05
2023-04-30T09:42:35.617Z,7.72
2023-04-30T09:45:07.758Z,9.80
2023-04-30T09:47:35.920Z,13.35
2023-04-30T09:50:03.820Z,89.43
2023-04-30T09:52:32.119Z,19.25
2023-04-30T09:54:59.612Z,38.60
2023-04-30T09:57:29.788Z,8.27
2023-04-30T09:59:58.262Z,20.98
2023-04-30T10:02:29.029Z,10.43
2023-04-30T10:04:57.020Z,8.73
2023-04-30T10:07:26.488Z,10.13
2023-04-30T10:10:05.075Z,37.63
2023-04-30T10:12:49.466Z,14.95
2023-04-30T10:15:18.838Z,9.07
2023-04-30T10:17:56.311Z,7.85
2023-04-30T10:20:25.301Z,8.52
2023-04-30T10:22:52.726Z,6.40
2023-04-30T10:25:20.647Z,7.72
2023-04-30T10:27:48.154Z,4.85
2023-04-30T10:30:16.210Z,6.70
2023-04-30T10:32:51.902Z,7.95
2023-04-30T10:35:27.731Z,9.88
2023-04-30T10:38:13.037Z,7.40
2023-04-30T10:40:44.181Z,7.32
2023-04-30T10:43:12.379Z,47.90
2023-04-30T10:45:42.551Z,10.88
2023-04-30T10:48:10.351Z,6.72
2023-04-30T10:50:46.420Z,8.10
2023-04-30T10:53:19.855Z,8.70
2023-04-30T10:55:49.393Z,8.70
2023-04-30T10:58:27.835Z,6.20
2023-04-30T11:01:25.367Z,6.18
2023-04-30T11:04:09.271Z,5.38
2023-04-30T11:06:55.046Z,5.50
2023-04-30T11:09:39.117Z,7.75
2023-04-30T11:12:11.993Z,11.30
2023-04-30T11:14:43.604Z,5.78
2023-04-30T11:17:11.849Z,6.50
2023-04-30T11:19:49.168Z,6.40
2023-04-30T11:22:17.451Z,9.25
2023-04-30T11:24:55.501Z,5.07
2023-04-30T11:27:27.042Z,7.40
2023-04-30T11:29:55.430Z,5.15
2023-04-30T11:32:27.601Z,6.90
2023-04-30T11:34:56.017Z,5.53
2023-04-30T11:37:30.624Z,6.70
2023-04-30T11:42:25.346Z,4.65
2023-04-30T11:44:52.789Z,6.07
2023-04-30T11:47:20.206Z,4.63
2023-04-30T11:49:47.829Z,4.82
2023-04-30T11:52:15.397Z,5.22
2023-04-30T11:54:42.957Z,5.00
2023-04-30T11:57:10.556Z,8.18
2023-04-30T11:59:42.376Z,3.70
2023-04-30T12:02:11.674Z,5.03
2023-04-30T12:04:44.089Z,3.85
2023-04-30T12:07:11.656Z,4.90
2023-04-30T12:09:57.862Z,4.32
2023-04-30T12:12:31.883Z,7.85
2023-04-30T12:14:59.510Z,7.95
2023-04-30T12:17:34.120Z,4.75
2023-04-30T12:20:01.907Z,4.55
2023-04-30T12:22:29.496Z,5.18
2023-04-30T12:24:57.719Z,8.52
2023-04-30T12:27:25.265Z,7.97
2023-04-30T12:29:55.069Z,3.97
2023-04-30T12:32:23.058Z,7.18
2023-04-30T12:34:51.442Z,6.18
2023-04-30T12:37:18.922Z,4.57
2023-04-30T12:39:47.374Z,5.70
2023-04-30T12:42:20.065Z,8.70
2023-04-30T12:44:47.734Z,6.93
2023-04-30T12:47:16.417Z,6.38
2023-04-30T12:49:46.913Z,3.08
2023-04-30T12:52:15.678Z,3.40
2023-04-30T12:54:43.768Z,4.20
2023-04-30T12:57:12.314Z,5.85
2023-04-30T12:59:59.658Z,4.50
2023-04-30T13:02:33.709Z,3.92
2023-04-30T13:05:01.230Z,3.97
2023-04-30T13:07:38.199Z,4.93
2023-04-30T13:10:07.308Z,8.35
2023-04-30T13:12:34.801Z,7.60
2023-04-30T13:15:03.713Z,5.82
2023-04-30T13:17:31.195Z,10.07
2023-04-30T13:19:58.691Z,4.88
2023-04-30T13:22:29.634Z,8.80
2023-04-30T13:24:57.133Z,4.63
2023-04-30T13:27:24.586Z,5.93
2023-04-30T13:29:52.367Z,5.38
2023-04-30T13:32:19.938Z,7.18
2023-04-30T13:34:48.158Z,4.28
2023-04-30T13:37:15.592Z,5.95
2023-04-30T13:39:43.052Z,8.88
2023-04-30T13:42:10.734Z,4.60
2023-04-30T13:44:39.121Z,5.13
2023-04-30T13:47:07.677Z,6.28
2023-04-30T13:49:36.292Z,4.32
2023-04-30T13:52:06.636Z,8.27
2023-04-30T13:54:34.128Z,10.48
2023-04-30T13:57:03.348Z,9.43
2023-04-30T13:59:31.820Z,7.47
2023-04-30T14:01:59.360Z,11.55
2023-04-30T14:04:27.490Z,12.68
2023-04-30T14:06:56.702Z,7.43
2023-04-30T14:09:27.587Z,6.07
2023-04-30T14:11:56.236Z,6.35
2023-04-30T14:14:23.662Z,13.38
2023-04-30T14:16:51.268Z,7.38
2023-04-30T14:19:21.545Z,7.47
2023-04-30T14:21:49.106Z,7.32
2023-04-30T14:24:16.546Z,5.15
2023-04-30T14:26:45.619Z,5.97
2023-04-30T14:29:13.114Z,4.70
2023-04-30T14:31:40.672Z,4.45
2023-04-30T14:34:08.184Z,4.43
2023-04-30T14:36:36.221Z,6.90
2023-04-30T14:39:04.720Z,5.57
2023-04-30T14:41:36.164Z,6.97
2023-04-30T14:44:04.340Z,5.85
2023-04-30T14:46:33.396Z,6.78
2023-04-30T14:49:01.222Z,5.15
2023-04-30T14:51:28.775Z,7.65
2023-04-30T14:53:56.277Z,9.18
2023-04-30T14:56:25.044Z,5.00
2023-04-30T14:58:53.579Z,5.80
2023-04-30T15:01:21.198Z,4.43
2023-04-30T15:03:51.711Z,8.00
2023-04-30T15:06:19.746Z,5.65
2023-04-30T15:08:47.214Z,5.68
2023-04-30T15:11:14.838Z,3.85
2023-04-30T15:13:42.342Z,5.40
2023-04-30T15:16:09.942Z,5.65
2023-04-30T15:18:37.448Z,4.40
2023-04-30T15:21:05.088Z,8.25
2023-04-30T15:23:33.805Z,8.35
2023-04-30T15:26:02.009Z,5.20
2023-04-30T15:28:29.438Z,4.88
2023-04-30T15:30:56.989Z,11.10
2023-04-30T15:33:28.872Z,5.20
2023-04-30T15:35:56.476Z,5.20
2023-04-30T15:38:23.909Z,6.35
2023-04-30T15:40:52.109Z,5.88
2023-04-30T15:43:19.599Z,6.50
2023-04-30T15:45:51.222Z,5.78
2023-04-30T15:48:18.821Z,5.18
2023-04-30T15:50:46.221Z,4.70
2023-04-30T15:53:16.597Z,7.07
2023-04-30T15:55:44.411Z,7.00
2023-04-30T15:58:14.934Z,7.60
2023-04-30T16:00:42.410Z,7.72
2023-04-30T16:03:15.997Z,5.70
2023-04-30T16:05:43.943Z,5.30
2023-04-30T16:08:12.228Z,6.45
2023-04-30T16:10:43.446Z,5.95
2023-04-30T16:13:11.152Z,7.35
2023-04-30T16:15:38.802Z,5.50
2023-04-30T16:18:06.796Z,6.28
2023-04-30T16:20:36.951Z,7.63
2023-04-30T16:23:04.910Z,8.77
2023-04-30T16:25:32.512Z,9.40
2023-04-30T16:28:00.019Z,13.15
2023-04-30T16:30:32.359Z,7.18
2023-04-30T16:33:03.053Z,8.35
2023-04-30T16:35:31.312Z,10.88
2023-04-30T16:37:58.778Z,5.88
2023-04-30T16:40:26.257Z,5.30
2023-04-30T16:42:53.735Z,8.50
2023-04-30T16:45:21.237Z,6.90
2023-04-30T16:47:49.498Z,6.97
2023-04-30T16:50:17.260Z,6.22
2023-04-30T16:52:44.763Z,10.10
2023-04-30T16:55:12.298Z,6.13
2023-04-30T16:57:39.902Z,7.32
2023-04-30T17:00:08.811Z,7.70
2023-04-30T17:02:37.024Z,8.70
2023-04-30T17:05:04.954Z,6.05
2023-04-30T17:07:32.334Z,5.55
2023-04-30T17:09:59.866Z,9.18
2023-04-30T17:12:27.788Z,7.60
2023-04-30T17:14:55.266Z,6.38
2023-04-30T17:17:23.491Z,10.68
2023-04-30T17:19:50.933Z,5.38
2023-04-30T17:22:20.184Z,10.07
2023-04-30T17:24:47.834Z,8.30
2023-04-30T17:27:15.314Z,7.88
2023-04-30T17:29:42.995Z,8.38
2023-04-30T17:32:11.296Z,7.55
2023-04-30T17:34:39.057Z,9.30
2023-04-30T17:37:07.186Z,9.73
2023-04-30T17:39:34.739Z,9.82
2023-04-30T17:42:03.378Z,7.88
2023-04-30T17:44:31.961Z,12.27
2023-04-30T17:46:59.417Z,7.38
2023-04-30T17:49:26.864Z,5.70
2023-04-30T17:51:54.736Z,6.68
2023-04-30T17:54:22.214Z,5.97
2023-04-30T17:56:49.559Z,8.35
2023-04-30T17:59:17.007Z,9.40
2023-04-30T18:01:44.433Z,7.13
2023-04-30T18:04:16.085Z,4.93
2023-04-30T18:06:43.732Z,5.10
2023-04-30T18:09:11.320Z,6.45
2023-04-30T18:11:38.932Z,8.10
2023-04-30T18:14:06.293Z,8.48
2023-04-30T18:16:34.083Z,8.63
2023-04-30T18:19:01.714Z,7.60
2023-04-30T18:21:29.493Z,7.68
2023-04-30T18:23:56.948Z,15.02
2023-04-30T18:26:24.766Z,8.70
2023-04-30T18:28:52.729Z,8.25
2023-04-30T18:31:20.377Z,8.15
2023-04-30T18:33:47.999Z,9.32
2023-04-30T18:36:15.461Z,8.05
2023-04-30T18:38:42.868Z,8.63
2023-04-30T18:41:10.292Z,11.02
2023-04-30T18:43:40.489Z,9.93
2023-04-30T18:46:07.990Z,11.35
2023-04-30T18:48:35.564Z,12.07
2023-04-30T18:51:03.065Z,11.93
2023-04-30T18:53:30.668Z,11.45
2023-04-30T18:55:58.326Z,14.23
2023-04-30T18:58:25.925Z,10.35
2023-04-30T19:00:57.516Z,15.05
2023-04-30T19:03:25.542Z,11.77
2023-04-30T19:05:59.233Z,12.10
2023-04-30T19:10:56.059Z,17.52
2023-04-30T19:13:23.903Z,16.48
2023-04-30T19:15:53.029Z,17.92
2023-04-30T19:18:21.397Z,20.08
2023-04-30T19:21:00.245Z,25.50
2023-04-30T19:23:30.471Z,16.98
2023-04-30T19:25:58.851Z,19.33
2023-04-30T19:28:26.452Z,8.80
2023-04-30T19:30:54.863Z,6.47
2023-04-30T19:33:22.985Z,9.32
2023-04-30T19:35:53.302Z,8.25
2023-04-30T19:38:21.565Z,6.55
2023-04-30T19:40:50.025Z,7.57
2023-04-30T19:43:17.556Z,7.53
2023-04-30T19:45:48.052Z,8.02
2023-04-30T19:48:15.547Z,7.38
2023-04-30T19:50:46.842Z,8.38
2023-04-30T19:53:14.869Z,8.63
2023-04-30T19:55:42.499Z,10.02
2023-04-30T19:58:10.093Z,7.60
2023-04-30T20:00:39.582Z,8.00
2023-04-30T20:03:08.408Z,7.88
2023-04-30T20:05:36.714Z,9.88
2023-04-30T20:08:04.583Z,9.07
2023-04-30T20:10:33.920Z,7.82
2023-04-30T20:13:01.322Z,11.07
2023-04-30T20:15:28.718Z,8.98
2023-04-30T20:17:56.560Z,7.57
2023-04-30T20:20:24.723Z,9.18
2023-04-30T20:22:53.170Z,7.18
2023-04-30T20:25:21.615Z,9.13
2023-04-30T20:27:49.268Z,9.55
2023-04-30T20:30:17.304Z,11.32
2023-04-30T20:32:44.925Z,6.80
2023-04-30T20:35:12.510Z,12.68
2023-04-30T20:37:40.136Z,5.90
2023-04-30T20:40:08.048Z,8.05
2023-04-30T20:42:36.096Z,10.63
2023-04-30T20:45:05.751Z,8.38
2023-04-30T20:47:33.507Z,8.27
2023-04-30T20:50:01.094Z,9.45
2023-04-30T20:52:28.570Z,7.43
2023-04-30T20:54:56.392Z,7.70
2023-04-30T20:57:24.074Z,7.72
2023-04-30T20:59:51.648Z,7.50
2023-04-30T21:02:19.380Z,7.72
2023-04-30T21:04:46.878Z,8.07
2023-04-30T21:07:14.381Z,9.85
2023-04-30T21:09:41.831Z,9.13
2023-04-30T21:12:09.264Z,9.40
2023-04-30T21:14:39.431Z,8.95
2023-04-30T21:17:07.738Z,7.90
2023-04-30T21:19:35.180Z,9.55
2023-04-30T21:22:02.697Z,9.05
2023-04-30T21:24:33.308Z,7.50
2023-04-30T21:27:00.757Z,9.82
2023-04-30T21:29:28.217Z,9.80
2023-04-30T21:31:56.356Z,12.40
2023-04-30T21:34:23.823Z,6.90
2023-04-30T21:36:54.449Z,9.45
2023-04-30T21:39:21.990Z,8.23
2023-04-30T21:41:49.429Z,9.43
2023-04-30T21:44:17.476Z,7.72
2023-04-30T21:46:44.916Z,8.77
2023-04-30T21:49:13.087Z,7.78
2023-04-30T21:51:40.732Z,7.63
2023-04-30T21:54:08.252Z,11.98
2023-04-30T21:56:36.560Z,8.43
2023-04-30T21:59:04.003Z,8.93
2023-04-30T22:01:32.114Z,9.63
2023-04-30T22:03:59.823Z,11.07
2023-04-30T22:06:28.476Z,9.45
2023-04-30T22:08:56.624Z,9.40
2023-04-30T22:11:25.270Z,10.57
2023-04-30T22:13:52.792Z,9.07
2023-04-30T22:16:20.253Z,8.80
2023-04-30T22:18:51.235Z,9.30
2023-04-30T22:21:18.661Z,10.68
2023-04-30T22:23:46.290Z,7.97
2023-04-30T22:26:13.826Z,9.00
2023-04-30T22:28:42.156Z,10.63
2023-04-30T22:31:09.621Z,8.32
2023-04-30T22:33:37.774Z,9.25
2023-04-30T22:36:10.379Z,9.13
2023-04-30T22:38:37.828Z,9.50
2023-04-30T22:41:05.342Z,9.45
2023-04-30T22:43:32.905Z,9.13
2023-04-30T22:46:01.499Z,10.15
2023-04-30T22:48:29.167Z,8.55
2023-04-30T22:50:57.911Z,9.73
2023-04-30T22:53:25.713Z,10.23
2023-04-30T22:55:54.126Z,10.35
2023-04-30T22:58:21.645Z,9.85
2023-04-30T23:00:49.148Z,9.93
2023-04-30T23:03:17.300Z,12.00
2023-04-30T23:05:44.998Z,9.00
2023-04-30T23:08:12.625Z,9.38
2023-04-30T23:10:40.054Z,8.73
2023-04-30T23:13:09.607Z,9.15
2023-04-30T23:15:37.020Z,9.18
2023-04-30T23:18:06.587Z,9.60
2023-04-30T23:20:34.100Z,9.35
2023-04-30T23:23:01.601Z,9.27
2023-04-30T23:25:29.074Z,7.63
2023-04-30T23:27:56.641Z,8.85
2023-04-30T23:30:24.083Z,9.85
2023-04-30T23:32:51.607Z,7.57
2023-04-30T23:35:19.089Z,9.85
2023-04-30T23:37:46.666Z,9.77
2023-04-30T23:40:15.186Z,10.57
2023-04-30T23:42:42.740Z,7.78
2023-04-30T23:45:10.330Z,9.20
2023-04-30T23:47:38.401Z,10.30
2023-04-30T23:50:06.061Z,9.15
2023-04-30T23:52:33.523Z,9.20
2023-04-30T23:55:00.915Z,8.38
2023-04-30T23:57:28.386Z,10.73
2023-04-30T23:59:56.431Z,11.55
